sensor_id;sensor_type;location;lat;lon;timestamp;temperature;humidity
76102;SHT30;64830;46.910;6.354;2023-11-21T00:01:10;7.28;84.00
76102;SHT30;64830;46.910;6.354;2023-11-21T00:03:37;7.25;84.13
76102;SHT30;64830;46.910;6.354;2023-11-21T00:06:02;7.25;84.22
76102;SHT30;64830;46.910;6.354;2023-11-21T00:08:28;7.25;84.41
76102;SHT30;64830;46.910;6.354;2023-11-21T00:10:53;7.28;84.42
76102;SHT30;64830;46.910;6.354;2023-11-21T00:13:20;7.27;84.37
76102;SHT30;64830;46.910;6.354;2023-11-21T00:15:45;7.27;84.53
76102;SHT30;64830;46.910;6.354;2023-11-21T00:18:11;7.28;84.35
76102;SHT30;64830;46.910;6.354;2023-11-21T00:20:36;7.25;84.27
76102;SHT30;64830;46.910;6.354;2023-11-21T00:23:01;7.17;84.48
76102;SHT30;64830;46.910;6.354;2023-11-21T00:25:27;7.18;84.50
76102;SHT30;64830;46.910;6.354;2023-11-21T00:27:53;7.14;84.53
76102;SHT30;64830;46.910;6.354;2023-11-21T00:30:19;7.15;84.85
76102;SHT30;64830;46.910;6.354;2023-11-21T00:32:45;7.10;84.68
76102;SHT30;64830;46.910;6.354;2023-11-21T00:35:10;7.07;84.90
76102;SHT30;64830;46.910;6.354;2023-11-21T00:37:36;7.06;85.06
76102;SHT30;64830;46.910;6.354;2023-11-21T00:40:02;7.00;85.11
76102;SHT30;64830;46.910;6.354;2023-11-21T00:42:30;7.00;85.02
76102;SHT30;64830;46.910;6.354;2023-11-21T00:44:57;7.01;85.24
76102;SHT30;64830;46.910;6.354;2023-11-21T00:47:22;7.03;85.13
76102;SHT30;64830;46.910;6.354;2023-11-21T00:49:48;7.06;84.79
76102;SHT30;64830;46.910;6.354;2023-11-21T00:52:14;7.04;84.93
76102;SHT30;64830;46.910;6.354;2023-11-21T00:54:39;7.04;85.11
76102;SHT30;64830;46.910;6.354;2023-11-21T00:57:05;7.01;84.75
76102;SHT30;64830;46.910;6.354;2023-11-21T00:59:30;7.00;84.86
76102;SHT30;64830;46.910;6.354;2023-11-21T01:01:55;6.97;85.13
76102;SHT30;64830;46.910;6.354;2023-11-21T01:04:21;6.93;85.10
76102;SHT30;64830;46.910;6.354;2023-11-21T01:06:47;6.90;85.34
76102;SHT30;64830;46.910;6.354;2023-11-21T01:09:12;6.87;85.42
76102;SHT30;64830;46.910;6.354;2023-11-21T01:11:38;6.87;85.67
76102;SHT30;64830;46.910;6.354;2023-11-21T01:14:04;6.90;85.90
76102;SHT30;64830;46.910;6.354;2023-11-21T01:16:30;6.90;85.75
76102;SHT30;64830;46.910;6.354;2023-11-21T01:18:58;6.87;85.57
76102;SHT30;64830;46.910;6.354;2023-11-21T01:21:24;6.87;85.92
76102;SHT30;64830;46.910;6.354;2023-11-21T01:23:49;6.86;85.75
76102;SHT30;64830;46.910;6.354;2023-11-21T01:26:14;6.86;85.67
76102;SHT30;64830;46.910;6.354;2023-11-21T01:28:40;6.80;85.76
76102;SHT30;64830;46.910;6.354;2023-11-21T01:31:05;6.75;85.66
76102;SHT30;64830;46.910;6.354;2023-11-21T01:33:32;6.69;85.72
76102;SHT30;64830;46.910;6.354;2023-11-21T01:35:58;6.68;85.63
76102;SHT30;64830;46.910;6.354;2023-11-21T01:38:25;6.61;85.30
76102;SHT30;64830;46.910;6.354;2023-11-21T01:40:50;6.65;85.48
76102;SHT30;64830;46.910;6.354;2023-11-21T01:43:16;6.61;85.61
76102;SHT30;64830;46.910;6.354;2023-11-21T01:45:42;6.59;85.44
76102;SHT30;64830;46.910;6.354;2023-11-21T01:48:08;6.64;85.56
76102;SHT30;64830;46.910;6.354;2023-11-21T01:50:33;6.68;85.76
76102;SHT30;64830;46.910;6.354;2023-11-21T01:53:00;6.67;85.24
76102;SHT30;64830;46.910;6.354;2023-11-21T01:55:25;6.68;85.14
76102;SHT30;64830;46.910;6.354;2023-11-21T01:57:52;6.71;84.44
76102;SHT30;64830;46.910;6.354;2023-11-21T02:00:18;6.69;84.58
76102;SHT30;64830;46.910;6.354;2023-11-21T02:02:48;6.69;84.72
76102;SHT30;64830;46.910;6.354;2023-11-21T02:05:17;6.71;84.77
76102;SHT30;64830;46.910;6.354;2023-11-21T02:07:47;6.76;84.88
76102;SHT30;64830;46.910;6.354;2023-11-21T02:10:14;6.79;85.12
76102;SHT30;64830;46.910;6.354;2023-11-21T02:12:43;6.83;84.89
76102;SHT30;64830;46.910;6.354;2023-11-21T02:15:13;6.86;84.68
76102;SHT30;64830;46.910;6.354;2023-11-21T02:17:52;6.89;84.72
76102;SHT30;64830;46.910;6.354;2023-11-21T02:20:19;6.87;84.63
76102;SHT30;64830;46.910;6.354;2023-11-21T02:22:55;6.87;84.85
76102;SHT30;64830;46.910;6.354;2023-11-21T02:25:26;6.89;85.08
76102;SHT30;64830;46.910;6.354;2023-11-21T02:27:55;6.92;84.63
76102;SHT30;64830;46.910;6.354;2023-11-21T02:30:22;6.95;84.84
76102;SHT30;64830;46.910;6.354;2023-11-21T02:32:48;6.93;84.85
76102;SHT30;64830;46.910;6.354;2023-11-21T02:35:14;6.97;85.09
76102;SHT30;64830;46.910;6.354;2023-11-21T02:37:41;6.99;84.83
76102;SHT30;64830;46.910;6.354;2023-11-21T02:40:09;6.99;84.68
76102;SHT30;64830;46.910;6.354;2023-11-21T02:42:35;7.04;84.88
76102;SHT30;64830;46.910;6.354;2023-11-21T02:45:00;7.03;84.77
76102;SHT30;64830;46.910;6.354;2023-11-21T02:47:26;7.06;84.94
76102;SHT30;64830;46.910;6.354;2023-11-21T02:49:51;7.04;84.99
76102;SHT30;64830;46.910;6.354;2023-11-21T02:52:18;7.07;84.91
76102;SHT30;64830;46.910;6.354;2023-11-21T02:54:44;7.03;84.81
76102;SHT30;64830;46.910;6.354;2023-11-21T02:57:09;7.03;85.04
76102;SHT30;64830;46.910;6.354;2023-11-21T02:59:35;7.07;85.07
76102;SHT30;64830;46.910;6.354;2023-11-21T03:02:00;7.07;85.13
76102;SHT30;64830;46.910;6.354;2023-11-21T03:04:26;7.07;85.00
76102;SHT30;64830;46.910;6.354;2023-11-21T03:06:51;7.08;85.02
76102;SHT30;64830;46.910;6.354;2023-11-21T03:09:17;7.08;85.06
76102;SHT30;64830;46.910;6.354;2023-11-21T03:11:42;7.08;85.13
76102;SHT30;64830;46.910;6.354;2023-11-21T03:14:07;7.08;85.05
76102;SHT30;64830;46.910;6.354;2023-11-21T03:16:33;7.07;85.00
76102;SHT30;64830;46.910;6.354;2023-11-21T03:18:58;7.10;85.01
76102;SHT30;64830;46.910;6.354;2023-11-21T03:21:24;7.10;84.80
76102;SHT30;64830;46.910;6.354;2023-11-21T03:23:51;7.08;84.84
76102;SHT30;64830;46.910;6.354;2023-11-21T03:26:17;7.11;84.91
76102;SHT30;64830;46.910;6.354;2023-11-21T03:28:43;7.06;84.14
76102;SHT30;64830;46.910;6.354;2023-11-21T03:31:08;7.00;84.49
76102;SHT30;64830;46.910;6.354;2023-11-21T03:33:36;6.96;84.48
76102;SHT30;64830;46.910;6.354;2023-11-21T03:36:02;6.95;84.03
76102;SHT30;64830;46.910;6.354;2023-11-21T03:38:29;6.90;83.80
76102;SHT30;64830;46.910;6.354;2023-11-21T03:40:54;6.85;84.07
76102;SHT30;64830;46.910;6.354;2023-11-21T03:43:19;6.86;84.35
76102;SHT30;64830;46.910;6.354;2023-11-21T03:45:45;6.82;84.56
76102;SHT30;64830;46.910;6.354;2023-11-21T03:48:12;6.78;85.13
76102;SHT30;64830;46.910;6.354;2023-11-21T03:50:38;6.73;85.34
76102;SHT30;64830;46.910;6.354;2023-11-21T03:53:04;6.72;85.50
76102;SHT30;64830;46.910;6.354;2023-11-21T03:55:29;6.68;85.73
76102;SHT30;64830;46.910;6.354;2023-11-21T03:57:57;6.67;85.82
76102;SHT30;64830;46.910;6.354;2023-11-21T04:00:22;6.67;85.87
76102;SHT30;64830;46.910;6.354;2023-11-21T04:02:48;6.62;85.95
76102;SHT30;64830;46.910;6.354;2023-11-21T04:05:16;6.61;85.97
76102;SHT30;64830;46.910;6.354;2023-11-21T04:07:41;6.62;85.86
76102;SHT30;64830;46.910;6.354;2023-11-21T04:10:07;6.62;86.04
76102;SHT30;64830;46.910;6.354;2023-11-21T04:12:35;6.58;86.30
76102;SHT30;64830;46.910;6.354;2023-11-21T04:15:00;6.64;86.22
76102;SHT30;64830;46.910;6.354;2023-11-21T04:17:25;6.68;86.36
76102;SHT30;64830;46.910;6.354;2023-11-21T04:19:51;6.69;86.37
76102;SHT30;64830;46.910;6.354;2023-11-21T04:22:16;6.71;86.34
76102;SHT30;64830;46.910;6.354;2023-11-21T04:24:41;6.71;86.26
76102;SHT30;64830;46.910;6.354;2023-11-21T04:27:07;6.71;86.20
76102;SHT30;64830;46.910;6.354;2023-11-21T04:29:33;6.71;86.26
76102;SHT30;64830;46.910;6.354;2023-11-21T04:31:58;6.72;86.18
76102;SHT30;64830;46.910;6.354;2023-11-21T04:34:23;6.75;86.29
76102;SHT30;64830;46.910;6.354;2023-11-21T04:36:49;6.73;86.07
76102;SHT30;64830;46.910;6.354;2023-11-21T04:39:15;6.73;86.16
76102;SHT30;64830;46.910;6.354;2023-11-21T04:41:40;6.79;86.15
76102;SHT30;64830;46.910;6.354;2023-11-21T04:44:06;6.79;86.02
76102;SHT30;64830;46.910;6.354;2023-11-21T04:46:31;6.79;86.23
76102;SHT30;64830;46.910;6.354;2023-11-21T04:48:57;6.76;86.15
76102;SHT30;64830;46.910;6.354;2023-11-21T04:51:23;6.78;86.35
76102;SHT30;64830;46.910;6.354;2023-11-21T04:53:49;6.76;86.30
76102;SHT30;64830;46.910;6.354;2023-11-21T04:56:14;6.80;86.41
76102;SHT30;64830;46.910;6.354;2023-11-21T04:58:41;6.78;86.25
76102;SHT30;64830;46.910;6.354;2023-11-21T05:01:07;6.79;86.32
76102;SHT30;64830;46.910;6.354;2023-11-21T05:03:33;6.83;86.41
76102;SHT30;64830;46.910;6.354;2023-11-21T05:05:59;6.85;86.40
76102;SHT30;64830;46.910;6.354;2023-11-21T05:08:25;6.86;86.29
76102;SHT30;64830;46.910;6.354;2023-11-21T05:10:51;6.87;86.08
76102;SHT30;64830;46.910;6.354;2023-11-21T05:13:17;6.85;86.22
76102;SHT30;64830;46.910;6.354;2023-11-21T05:15:44;6.89;86.28
76102;SHT30;64830;46.910;6.354;2023-11-21T05:18:09;6.87;86.28
76102;SHT30;64830;46.910;6.354;2023-11-21T05:20:35;6.85;86.38
76102;SHT30;64830;46.910;6.354;2023-11-21T05:23:01;6.86;86.40
76102;SHT30;64830;46.910;6.354;2023-11-21T05:25:26;6.87;86.29
76102;SHT30;64830;46.910;6.354;2023-11-21T05:27:53;6.85;86.43
76102;SHT30;64830;46.910;6.354;2023-11-21T05:30:21;6.86;86.57
76102;SHT30;64830;46.910;6.354;2023-11-21T05:32:47;6.87;86.45
76102;SHT30;64830;46.910;6.354;2023-11-21T05:35:12;6.85;86.62
76102;SHT30;64830;46.910;6.354;2023-11-21T05:37:41;6.87;86.65
76102;SHT30;64830;46.910;6.354;2023-11-21T05:40:08;6.83;86.45
76102;SHT30;64830;46.910;6.354;2023-11-21T05:42:34;6.82;86.53
76102;SHT30;64830;46.910;6.354;2023-11-21T05:44:59;6.80;86.68
76102;SHT30;64830;46.910;6.354;2023-11-21T05:47:36;6.83;86.62
76102;SHT30;64830;46.910;6.354;2023-11-21T05:50:01;6.83;86.76
76102;SHT30;64830;46.910;6.354;2023-11-21T05:52:27;6.85;86.79
76102;SHT30;64830;46.910;6.354;2023-11-21T05:54:52;6.87;86.74
76102;SHT30;64830;46.910;6.354;2023-11-21T05:57:18;6.92;86.73
76102;SHT30;64830;46.910;6.354;2023-11-21T05:59:43;6.93;86.49
76102;SHT30;64830;46.910;6.354;2023-11-21T06:02:08;6.93;86.54
76102;SHT30;64830;46.910;6.354;2023-11-21T06:04:34;6.93;86.70
76102;SHT30;64830;46.910;6.354;2023-11-21T06:06:59;6.97;86.66
76102;SHT30;64830;46.910;6.354;2023-11-21T06:09:25;6.93;86.43
76102;SHT30;64830;46.910;6.354;2023-11-21T06:11:51;6.93;86.47
76102;SHT30;64830;46.910;6.354;2023-11-21T06:14:16;6.97;86.46
76102;SHT30;64830;46.910;6.354;2023-11-21T06:16:43;6.97;86.60
76102;SHT30;64830;46.910;6.354;2023-11-21T06:19:10;6.97;86.63
76102;SHT30;64830;46.910;6.354;2023-11-21T06:21:36;7.00;86.65
76102;SHT30;64830;46.910;6.354;2023-11-21T06:24:01;7.01;86.51
76102;SHT30;64830;46.910;6.354;2023-11-21T06:26:27;6.99;86.56
76102;SHT30;64830;46.910;6.354;2023-11-21T06:28:52;6.97;86.59
76102;SHT30;64830;46.910;6.354;2023-11-21T06:31:19;6.95;86.62
76102;SHT30;64830;46.910;6.354;2023-11-21T06:33:44;6.89;86.59
76102;SHT30;64830;46.910;6.354;2023-11-21T06:36:09;6.80;86.62
76102;SHT30;64830;46.910;6.354;2023-11-21T06:38:36;6.73;86.68
76102;SHT30;64830;46.910;6.354;2023-11-21T06:41:02;6.72;86.84
76102;SHT30;64830;46.910;6.354;2023-11-21T06:43:29;6.72;87.05
76102;SHT30;64830;46.910;6.354;2023-11-21T06:45:56;6.76;87.16
76102;SHT30;64830;46.910;6.354;2023-11-21T06:48:22;6.75;87.01
76102;SHT30;64830;46.910;6.354;2023-11-21T06:50:47;6.73;87.07
76102;SHT30;64830;46.910;6.354;2023-11-21T06:53:12;6.75;87.13
76102;SHT30;64830;46.910;6.354;2023-11-21T06:55:38;6.73;87.11
76102;SHT30;64830;46.910;6.354;2023-11-21T06:58:04;6.75;87.27
76102;SHT30;64830;46.910;6.354;2023-11-21T07:00:30;6.75;87.35
76102;SHT30;64830;46.910;6.354;2023-11-21T07:02:55;6.73;87.31
76102;SHT30;64830;46.910;6.354;2023-11-21T07:05:21;6.72;87.30
76102;SHT30;64830;46.910;6.354;2023-11-21T07:07:47;6.68;87.42
76102;SHT30;64830;46.910;6.354;2023-11-21T07:10:13;6.68;87.61
76102;SHT30;64830;46.910;6.354;2023-11-21T07:12:39;6.62;87.59
76102;SHT30;64830;46.910;6.354;2023-11-21T07:15:06;6.64;87.76
76102;SHT30;64830;46.910;6.354;2023-11-21T07:17:34;6.61;87.77
76102;SHT30;64830;46.910;6.354;2023-11-21T07:20:01;6.58;87.83
76102;SHT30;64830;46.910;6.354;2023-11-21T07:22:26;6.51;87.78
76102;SHT30;64830;46.910;6.354;2023-11-21T07:24:51;6.49;87.99
76102;SHT30;64830;46.910;6.354;2023-11-21T07:27:17;6.44;87.82
76102;SHT30;64830;46.910;6.354;2023-11-21T07:29:43;6.42;87.62
76102;SHT30;64830;46.910;6.354;2023-11-21T07:32:09;6.38;87.20
76102;SHT30;64830;46.910;6.354;2023-11-21T07:34:38;6.34;87.55
76102;SHT30;64830;46.910;6.354;2023-11-21T07:37:03;6.31;87.20
76102;SHT30;64830;46.910;6.354;2023-11-21T07:39:29;6.30;87.45
76102;SHT30;64830;46.910;6.354;2023-11-21T07:41:55;6.30;87.28
76102;SHT30;64830;46.910;6.354;2023-11-21T07:44:21;6.27;87.11
76102;SHT30;64830;46.910;6.354;2023-11-21T07:46:46;6.21;87.21
76102;SHT30;64830;46.910;6.354;2023-11-21T07:49:12;6.18;87.48
76102;SHT30;64830;46.910;6.354;2023-11-21T07:51:42;6.24;87.45
76102;SHT30;64830;46.910;6.354;2023-11-21T07:54:09;6.30;87.32
76102;SHT30;64830;46.910;6.354;2023-11-21T07:56:35;6.37;87.24
76102;SHT30;64830;46.910;6.354;2023-11-21T07:59:00;6.41;87.34
76102;SHT30;64830;46.910;6.354;2023-11-21T08:01:25;6.42;87.07
76102;SHT30;64830;46.910;6.354;2023-11-21T08:03:53;6.45;87.25
76102;SHT30;64830;46.910;6.354;2023-11-21T08:06:22;6.46;87.07
76102;SHT30;64830;46.910;6.354;2023-11-21T08:08:48;6.45;86.98
76102;SHT30;64830;46.910;6.354;2023-11-21T08:11:13;6.45;86.93
76102;SHT30;64830;46.910;6.354;2023-11-21T08:13:38;6.45;87.13
76102;SHT30;64830;46.910;6.354;2023-11-21T08:16:04;6.46;87.23
76102;SHT30;64830;46.910;6.354;2023-11-21T08:18:30;6.44;86.74
76102;SHT30;64830;46.910;6.354;2023-11-21T08:20:56;6.35;86.88
76102;SHT30;64830;46.910;6.354;2023-11-21T08:23:22;6.28;87.11
76102;SHT30;64830;46.910;6.354;2023-11-21T08:25:52;6.30;87.41
76102;SHT30;64830;46.910;6.354;2023-11-21T08:28:19;6.31;87.43
76102;SHT30;64830;46.910;6.354;2023-11-21T08:30:44;6.28;87.21
76102;SHT30;64830;46.910;6.354;2023-11-21T08:33:10;6.24;87.65
76102;SHT30;64830;46.910;6.354;2023-11-21T08:35:37;6.24;87.51
76102;SHT30;64830;46.910;6.354;2023-11-21T08:38:03;6.20;87.37
76102;SHT30;64830;46.910;6.354;2023-11-21T08:40:29;6.25;87.60
76102;SHT30;64830;46.910;6.354;2023-11-21T08:42:54;6.33;87.49
76102;SHT30;64830;46.910;6.354;2023-11-21T08:45:21;6.42;87.34
76102;SHT30;64830;46.910;6.354;2023-11-21T08:47:47;6.49;87.27
76102;SHT30;64830;46.910;6.354;2023-11-21T08:50:13;6.53;86.84
76102;SHT30;64830;46.910;6.354;2023-11-21T08:52:39;6.59;86.95
76102;SHT30;64830;46.910;6.354;2023-11-21T08:55:06;6.61;87.13
76102;SHT30;64830;46.910;6.354;2023-11-21T08:57:37;6.67;86.47
76102;SHT30;64830;46.910;6.354;2023-11-21T09:00:03;6.67;86.69
76102;SHT30;64830;46.910;6.354;2023-11-21T09:02:33;6.71;86.59
76102;SHT30;64830;46.910;6.354;2023-11-21T09:04:59;6.75;86.38
76102;SHT30;64830;46.910;6.354;2023-11-21T09:07:24;6.78;87.03
76102;SHT30;64830;46.910;6.354;2023-11-21T09:09:50;6.80;86.97
76102;SHT30;64830;46.910;6.354;2023-11-21T09:12:16;6.80;86.74
76102;SHT30;64830;46.910;6.354;2023-11-21T09:14:42;6.83;86.74
76102;SHT30;64830;46.910;6.354;2023-11-21T09:17:09;6.83;86.18
76102;SHT30;64830;46.910;6.354;2023-11-21T09:19:38;6.82;86.29
76102;SHT30;64830;46.910;6.354;2023-11-21T09:22:04;6.75;85.71
76102;SHT30;64830;46.910;6.354;2023-11-21T09:24:31;6.69;85.96
76102;SHT30;64830;46.910;6.354;2023-11-21T09:26:56;6.62;86.34
76102;SHT30;64830;46.910;6.354;2023-11-21T09:29:22;6.65;86.57
76102;SHT30;64830;46.910;6.354;2023-11-21T09:31:47;6.65;86.32
76102;SHT30;64830;46.910;6.354;2023-11-21T09:34:13;6.67;86.47
76102;SHT30;64830;46.910;6.354;2023-11-21T09:36:38;6.71;86.47
76102;SHT30;64830;46.910;6.354;2023-11-21T09:39:04;6.73;86.51
76102;SHT30;64830;46.910;6.354;2023-11-21T09:42:17;6.75;86.70
76102;SHT30;64830;46.910;6.354;2023-11-21T09:44:41;6.68;86.23
76102;SHT30;64830;46.910;6.354;2023-11-21T09:47:10;6.59;85.68
76102;SHT30;64830;46.910;6.354;2023-11-21T09:49:38;6.45;85.58
76102;SHT30;64830;46.910;6.354;2023-11-21T09:52:08;6.34;84.99
76102;SHT30;64830;46.910;6.354;2023-11-21T09:54:35;6.23;85.31
76102;SHT30;64830;46.910;6.354;2023-11-21T09:57:02;6.23;85.95
76102;SHT30;64830;46.910;6.354;2023-11-21T09:59:31;6.21;85.62
76102;SHT30;64830;46.910;6.354;2023-11-21T10:02:01;6.20;85.41
76102;SHT30;64830;46.910;6.354;2023-11-21T10:04:27;6.13;85.42
76102;SHT30;64830;46.910;6.354;2023-11-21T10:06:54;6.14;85.64
76102;SHT30;64830;46.910;6.354;2023-11-21T10:09:20;6.21;85.70
76102;SHT30;64830;46.910;6.354;2023-11-21T10:11:47;6.27;85.81
76102;SHT30;64830;46.910;6.354;2023-11-21T10:14:14;6.35;85.30
76102;SHT30;64830;46.910;6.354;2023-11-21T10:16:43;6.41;84.69
76102;SHT30;64830;46.910;6.354;2023-11-21T10:19:10;6.45;85.24
76102;SHT30;64830;46.910;6.354;2023-11-21T10:21:37;6.56;84.98
76102;SHT30;64830;46.910;6.354;2023-11-21T10:24:03;6.65;84.86
76102;SHT30;64830;46.910;6.354;2023-11-21T10:26:29;6.72;85.37
76102;SHT30;64830;46.910;6.354;2023-11-21T10:29:00;6.78;84.27
76102;SHT30;64830;46.910;6.354;2023-11-21T10:31:30;6.82;84.82
76102;SHT30;64830;46.910;6.354;2023-11-21T10:34:15;6.92;84.72
76102;SHT30;64830;46.910;6.354;2023-11-21T10:36:41;7.01;84.69
76102;SHT30;64830;46.910;6.354;2023-11-21T10:39:07;7.11;83.81
76102;SHT30;64830;46.910;6.354;2023-11-21T10:41:32;7.17;83.59
76102;SHT30;64830;46.910;6.354;2023-11-21T10:43:58;7.25;84.10
76102;SHT30;64830;46.910;6.354;2023-11-21T10:46:23;7.31;83.54
76102;SHT30;64830;46.910;6.354;2023-11-21T10:48:54;7.27;83.32
76102;SHT30;64830;46.910;6.354;2023-11-21T10:51:21;7.25;83.97
76102;SHT30;64830;46.910;6.354;2023-11-21T10:53:46;7.24;83.37
76102;SHT30;64830;46.910;6.354;2023-11-21T10:56:14;7.17;83.59
76102;SHT30;64830;46.910;6.354;2023-11-21T11:17:02;6.65;84.04
76102;SHT30;64830;46.910;6.354;2023-11-21T11:19:29;6.64;83.91
76102;SHT30;64830;46.910;6.354;2023-11-21T11:27:37;6.58;84.09
76102;SHT30;64830;46.910;6.354;2023-11-21T11:30:21;6.45;84.09
76102;SHT30;64830;46.910;6.354;2023-11-21T11:38:32;6.40;84.19
76102;SHT30;64830;46.910;6.354;2023-11-21T11:41:05;6.33;83.11
76102;SHT30;64830;46.910;6.354;2023-11-21T11:43:31;6.31;83.15
76102;SHT30;64830;46.910;6.354;2023-11-21T11:46:09;6.28;83.27
76102;SHT30;64830;46.910;6.354;2023-11-21T11:48:38;6.31;83.40
76102;SHT30;64830;46.910;6.354;2023-11-21T11:53:41;6.40;83.21
76102;SHT30;64830;46.910;6.354;2023-11-21T11:58:51;6.30;82.90
76102;SHT30;64830;46.910;6.354;2023-11-21T12:01:20;6.28;83.35
76102;SHT30;64830;46.910;6.354;2023-11-21T12:06:36;6.34;83.60
76102;SHT30;64830;46.910;6.354;2023-11-21T12:09:02;6.33;83.55
76102;SHT30;64830;46.910;6.354;2023-11-21T12:11:31;6.34;83.40
76102;SHT30;64830;46.910;6.354;2023-11-21T12:13:58;6.34;83.10
76102;SHT30;64830;46.910;6.354;2023-11-21T12:16:25;6.31;83.07
76102;SHT30;64830;46.910;6.354;2023-11-21T12:18:53;6.23;82.92
76102;SHT30;64830;46.910;6.354;2023-11-21T12:21:22;6.10;82.77
76102;SHT30;64830;46.910;6.354;2023-11-21T12:23:47;6.03;83.46
76102;SHT30;64830;46.910;6.354;2023-11-21T12:26:13;6.00;83.21
76102;SHT30;64830;46.910;6.354;2023-11-21T12:28:39;5.95;84.04
76102;SHT30;64830;46.910;6.354;2023-11-21T12:31:05;5.95;83.95
76102;SHT30;64830;46.910;6.354;2023-11-21T12:33:33;5.95;84.24
76102;SHT30;64830;46.910;6.354;2023-11-21T12:35:58;5.97;84.89
76102;SHT30;64830;46.910;6.354;2023-11-21T12:38:24;6.00;84.37
76102;SHT30;64830;46.910;6.354;2023-11-21T12:40:50;6.00;84.10
76102;SHT30;64830;46.910;6.354;2023-11-21T12:43:17;5.93;84.21
76102;SHT30;64830;46.910;6.354;2023-11-21T12:45:43;5.92;84.45
76102;SHT30;64830;46.910;6.354;2023-11-21T12:48:09;5.90;84.00
76102;SHT30;64830;46.910;6.354;2023-11-21T12:50:38;5.90;84.08
76102;SHT30;64830;46.910;6.354;2023-11-21T12:53:08;5.85;84.48
76102;SHT30;64830;46.910;6.354;2023-11-21T12:55:35;5.85;84.55
76102;SHT30;64830;46.910;6.354;2023-11-21T12:58:05;5.85;84.46
76102;SHT30;64830;46.910;6.354;2023-11-21T13:03:06;5.83;84.10
76102;SHT30;64830;46.910;6.354;2023-11-21T13:05:36;5.80;84.36
76102;SHT30;64830;46.910;6.354;2023-11-21T13:08:08;5.80;84.04
76102;SHT30;64830;46.910;6.354;2023-11-21T13:10:38;5.85;84.17
76102;SHT30;64830;46.910;6.354;2023-11-21T13:13:07;5.88;84.54
76102;SHT30;64830;46.910;6.354;2023-11-21T13:15:47;5.89;84.00
76102;SHT30;64830;46.910;6.354;2023-11-21T13:18:13;5.93;84.17
76102;SHT30;64830;46.910;6.354;2023-11-21T13:20:39;5.96;83.90
76102;SHT30;64830;46.910;6.354;2023-11-21T13:23:08;5.96;84.10
76102;SHT30;64830;46.910;6.354;2023-11-21T13:25:34;5.97;83.78
76102;SHT30;64830;46.910;6.354;2023-11-21T13:28:00;6.03;84.25
76102;SHT30;64830;46.910;6.354;2023-11-21T13:30:26;6.11;83.42
76102;SHT30;64830;46.910;6.354;2023-11-21T13:32:53;6.10;83.28
76102;SHT30;64830;46.910;6.354;2023-11-21T13:35:22;6.06;83.17
76102;SHT30;64830;46.910;6.354;2023-11-21T13:37:57;5.99;83.11
76102;SHT30;64830;46.910;6.354;2023-11-21T13:40:25;5.96;83.33
76102;SHT30;64830;46.910;6.354;2023-11-21T13:42:55;5.97;83.89
76102;SHT30;64830;46.910;6.354;2023-11-21T13:45:25;5.99;83.75
76102;SHT30;64830;46.910;6.354;2023-11-21T13:47:53;6.00;83.72
76102;SHT30;64830;46.910;6.354;2023-11-21T13:50:27;5.95;84.07
76102;SHT30;64830;46.910;6.354;2023-11-21T13:53:01;5.97;84.01
76102;SHT30;64830;46.910;6.354;2023-11-21T13:55:36;5.97;84.13
76102;SHT30;64830;46.910;6.354;2023-11-21T13:58:02;5.96;84.55
76102;SHT30;64830;46.910;6.354;2023-11-21T14:00:29;5.95;84.36
76102;SHT30;64830;46.910;6.354;2023-11-21T14:03:11;5.86;84.29
76102;SHT30;64830;46.910;6.354;2023-11-21T14:05:44;5.80;84.68
76102;SHT30;64830;46.910;6.354;2023-11-21T14:08:12;5.73;85.48
76102;SHT30;64830;46.910;6.354;2023-11-21T14:10:42;5.78;85.82
76102;SHT30;64830;46.910;6.354;2023-11-21T14:13:14;5.75;85.45
76102;SHT30;64830;46.910;6.354;2023-11-21T14:15:42;5.76;85.26
76102;SHT30;64830;46.910;6.354;2023-11-21T14:18:10;5.73;85.48
76102;SHT30;64830;46.910;6.354;2023-11-21T14:20:37;5.73;85.95
76102;SHT30;64830;46.910;6.354;2023-11-21T14:23:04;5.73;85.76
76102;SHT30;64830;46.910;6.354;2023-11-21T14:25:31;5.73;86.18
76102;SHT30;64830;46.910;6.354;2023-11-21T14:27:57;5.72;86.23
76102;SHT30;64830;46.910;6.354;2023-11-21T14:30:22;5.76;86.57
76102;SHT30;64830;46.910;6.354;2023-11-21T14:32:48;5.86;86.83
76102;SHT30;64830;46.910;6.354;2023-11-21T14:35:16;5.92;86.96
76102;SHT30;64830;46.910;6.354;2023-11-21T14:37:43;5.99;86.85
76102;SHT30;64830;46.910;6.354;2023-11-21T14:40:09;6.05;86.66
76102;SHT30;64830;46.910;6.354;2023-11-21T14:42:35;6.02;86.21
76102;SHT30;64830;46.910;6.354;2023-11-21T14:45:04;6.11;86.15
76102;SHT30;64830;46.910;6.354;2023-11-21T14:47:32;6.10;86.25
76102;SHT30;64830;46.910;6.354;2023-11-21T14:50:02;6.16;86.43
76102;SHT30;64830;46.910;6.354;2023-11-21T14:52:47;6.14;85.87
76102;SHT30;64830;46.910;6.354;2023-11-21T14:55:23;6.18;86.26
76102;SHT30;64830;46.910;6.354;2023-11-21T14:58:11;6.24;86.22
76102;SHT30;64830;46.910;6.354;2023-11-21T15:00:41;6.34;85.94
76102;SHT30;64830;46.910;6.354;2023-11-21T15:03:10;6.37;85.83
76102;SHT30;64830;46.910;6.354;2023-11-21T15:05:46;6.40;85.78
76102;SHT30;64830;46.910;6.354;2023-11-21T15:08:14;6.44;85.89
76102;SHT30;64830;46.910;6.354;2023-11-21T15:10:46;6.46;85.94
76102;SHT30;64830;46.910;6.354;2023-11-21T15:13:14;6.45;85.55
76102;SHT30;64830;46.910;6.354;2023-11-21T15:15:42;6.41;85.58
76102;SHT30;64830;46.910;6.354;2023-11-21T15:18:07;6.40;85.51
76102;SHT30;64830;46.910;6.354;2023-11-21T15:20:33;6.37;85.70
76102;SHT30;64830;46.910;6.354;2023-11-21T15:22:59;6.34;85.83
76102;SHT30;64830;46.910;6.354;2023-11-21T15:25:25;6.33;85.37
76102;SHT30;64830;46.910;6.354;2023-11-21T15:27:50;6.21;85.36
76102;SHT30;64830;46.910;6.354;2023-11-21T15:30:16;6.18;85.60
76102;SHT30;64830;46.910;6.354;2023-11-21T15:32:45;6.11;85.62
76102;SHT30;64830;46.910;6.354;2023-11-21T15:35:11;6.07;86.26
76102;SHT30;64830;46.910;6.354;2023-11-21T15:37:39;6.06;86.11
76102;SHT30;64830;46.910;6.354;2023-11-21T15:40:08;6.05;86.47
76102;SHT30;64830;46.910;6.354;2023-11-21T15:42:34;6.03;86.32
76102;SHT30;64830;46.910;6.354;2023-11-21T15:45:04;6.05;86.45
76102;SHT30;64830;46.910;6.354;2023-11-21T15:47:32;6.02;86.65
76102;SHT30;64830;46.910;6.354;2023-11-21T15:49:57;5.97;86.42
76102;SHT30;64830;46.910;6.354;2023-11-21T15:52:23;6.00;86.80
76102;SHT30;64830;46.910;6.354;2023-11-21T15:54:48;6.00;86.94
76102;SHT30;64830;46.910;6.354;2023-11-21T15:57:14;6.03;86.61
76102;SHT30;64830;46.910;6.354;2023-11-21T15:59:40;6.00;86.98
76102;SHT30;64830;46.910;6.354;2023-11-21T16:02:07;5.97;87.03
76102;SHT30;64830;46.910;6.354;2023-11-21T16:04:33;5.96;87.12
76102;SHT30;64830;46.910;6.354;2023-11-21T16:07:01;5.96;87.21
76102;SHT30;64830;46.910;6.354;2023-11-21T16:09:27;5.93;87.12
76102;SHT30;64830;46.910;6.354;2023-11-21T16:12:04;5.93;87.38
76102;SHT30;64830;46.910;6.354;2023-11-21T16:14:32;5.92;87.60
76102;SHT30;64830;46.910;6.354;2023-11-21T16:17:04;5.92;87.35
76102;SHT30;64830;46.910;6.354;2023-11-21T16:19:32;5.95;87.51
76102;SHT30;64830;46.910;6.354;2023-11-21T16:21:58;5.93;87.69
76102;SHT30;64830;46.910;6.354;2023-11-21T16:24:23;5.96;87.49